sensor_id;sensor_type;location;lat;lon;timestamp;temperature;humidity
25170;DHT22;13129;48.012;10.352;2022-08-19T03:31:49;17.20;99.90
25170;DHT22;13129;48.012;10.352;2022-08-19T03:34:29;17.20;99.90
25170;DHT22;13129;48.012;10.352;2022-08-19T03:36:57;17.20;99.90
25170;DHT22;13129;48.012;10.352;2022-08-19T03:39:25;17.20;99.90
25170;DHT22;13129;48.012;10.352;2022-08-19T03:41:53;17.10;99.90
25170;DHT22;13129;48.012;10.352;2022-08-19T03:44:22;17.10;99.90
25170;DHT22;13129;48.012;10.352;2022-08-19T03:46:54;17.10;99.90
25170;DHT22;13129;48.012;10.352;2022-08-19T03:49:22;17.10;99.90
25170;DHT22;13129;48.012;10.352;2022-08-19T03:51:49;17.10;99.90
25170;DHT22;13129;48.012;10.352;2022-08-19T03:54:18;17.10;99.90
25170;DHT22;13129;48.012;10.352;2022-08-19T03:56:46;17.10;99.90
25170;DHT22;13129;48.012;10.352;2022-08-19T03:59:16;17.10;99.90
25170;DHT22;13129;48.012;10.352;2022-08-19T04:01:42;17.10;99.90
25170;DHT22;13129;48.012;10.352;2022-08-19T04:04:08;17.10;99.90
25170;DHT22;13129;48.012;10.352;2022-08-19T04:06:36;17.00;99.90
25170;DHT22;13129;48.012;10.352;2022-08-19T04:09:04;17.10;99.90
25170;DHT22;13129;48.012;10.352;2022-08-19T04:11:39;17.10;99.90
25170;DHT22;13129;48.012;10.352;2022-08-19T04:14:08;17.00;99.90
25170;DHT22;13129;48.012;10.352;2022-08-19T04:16:37;17.00;99.90
25170;DHT22;13129;48.012;10.352;2022-08-19T04:19:04;17.00;99.90
25170;DHT22;13129;48.012;10.352;2022-08-19T04:21:34;17.00;99.90
25170;DHT22;13129;48.012;10.352;2022-08-19T04:24:00;17.00;99.90
25170;DHT22;13129;48.012;10.352;2022-08-19T04:26:30;17.00;99.90
25170;DHT22;13129;48.012;10.352;2022-08-19T04:29:07;17.00;99.90
25170;DHT22;13129;48.012;10.352;2022-08-19T04:31:36;17.00;99.90
25170;DHT22;13129;48.012;10.352;2022-08-19T04:34:05;17.00;99.90
25170;DHT22;13129;48.012;10.352;2022-08-19T04:36:34;17.00;99.90
25170;DHT22;13129;48.012;10.352;2022-08-19T04:39:05;17.00;99.90
25170;DHT22;13129;48.012;10.352;2022-08-19T04:41:32;17.00;99.90
25170;DHT22;13129;48.012;10.352;2022-08-19T04:44:16;17.00;99.90
25170;DHT22;13129;48.012;10.352;2022-08-19T04:46:44;17.00;99.90
25170;DHT22;13129;48.012;10.352;2022-08-19T04:49:10;17.00;99.90
25170;DHT22;13129;48.012;10.352;2022-08-19T04:51:40;17.10;99.90
25170;DHT22;13129;48.012;10.352;2022-08-19T04:54:06;17.10;99.90
25170;DHT22;13129;48.012;10.352;2022-08-19T04:56:32;17.00;99.90
25170;DHT22;13129;48.012;10.352;2022-08-19T04:58:59;17.10;99.90
25170;DHT22;13129;48.012;10.352;2022-08-19T05:01:30;17.10;99.90
25170;DHT22;13129;48.012;10.352;2022-08-19T05:04:01;17.00;99.90
25170;DHT22;13129;48.012;10.352;2022-08-19T05:06:30;17.10;99.90
25170;DHT22;13129;48.012;10.352;2022-08-19T05:08:58;17.10;99.90
25170;DHT22;13129;48.012;10.352;2022-08-19T05:11:27;17.10;99.90
25170;DHT22;13129;48.012;10.352;2022-08-19T05:13:53;17.10;99.90
25170;DHT22;13129;48.012;10.352;2022-08-19T05:16:22;17.20;99.90
25170;DHT22;13129;48.012;10.352;2022-08-19T05:18:48;17.10;99.90
25170;DHT22;13129;48.012;10.352;2022-08-19T05:21:33;17.10;99.90
25170;DHT22;13129;48.012;10.352;2022-08-19T05:24:19;17.20;99.90
25170;DHT22;13129;48.012;10.352;2022-08-19T05:26:48;17.10;99.90
25170;DHT22;13129;48.012;10.352;2022-08-19T05:29:16;17.00;99.90
25170;DHT22;13129;48.012;10.352;2022-08-19T05:31:42;17.00;99.90
25170;DHT22;13129;48.012;10.352;2022-08-19T05:34:09;17.00;99.90
25170;DHT22;13129;48.012;10.352;2022-08-19T05:36:40;17.00;99.90
25170;DHT22;13129;48.012;10.352;2022-08-19T05:39:07;17.10;99.90
25170;DHT22;13129;48.012;10.352;2022-08-19T05:41:33;17.20;99.90
25170;DHT22;13129;48.012;10.352;2022-08-19T05:44:04;17.20;99.90
25170;DHT22;13129;48.012;10.352;2022-08-19T05:46:36;17.20;99.90
25170;DHT22;13129;48.012;10.352;2022-08-19T05:49:04;17.20;99.90
25170;DHT22;13129;48.012;10.352;2022-08-19T05:51:32;17.20;99.90
25170;DHT22;13129;48.012;10.352;2022-08-19T05:54:03;17.20;99.90
25170;DHT22;13129;48.012;10.352;2022-08-19T05:56:34;17.20;99.90
25170;DHT22;13129;48.012;10.352;2022-08-19T05:59:07;17.10;99.90
25170;DHT22;13129;48.012;10.352;2022-08-19T06:01:35;17.10;99.90
25170;DHT22;13129;48.012;10.352;2022-08-19T06:04:02;17.00;99.90
25170;DHT22;13129;48.012;10.352;2022-08-19T06:06:41;17.00;99.90
25170;DHT22;13129;48.012;10.352;2022-08-19T06:09:07;17.00;99.90
25170;DHT22;13129;48.012;10.352;2022-08-19T06:11:53;16.90;99.90
25170;DHT22;13129;48.012;10.352;2022-08-19T06:28:09;16.70;99.90
25170;DHT22;13129;48.012;10.352;2022-08-19T07:09:05;16.70;99.90
25170;DHT22;13129;48.012;10.352;2022-08-19T07:11:43;16.80;99.90
25170;DHT22;13129;48.012;10.352;2022-08-19T07:14:45;16.80;99.90
25170;DHT22;13129;48.012;10.352;2022-08-19T07:17:52;16.80;99.90
25170;DHT22;13129;48.012;10.352;2022-08-19T07:27:20;17.00;99.90
25170;DHT22;13129;48.012;10.352;2022-08-19T07:29:53;17.10;99.90
25170;DHT22;13129;48.012;10.352;2022-08-19T07:32:19;17.20;99.90
25170;DHT22;13129;48.012;10.352;2022-08-19T07:34:54;17.20;99.90
25170;DHT22;13129;48.012;10.352;2022-08-19T07:37:39;17.20;99.90
25170;DHT22;13129;48.012;10.352;2022-08-19T07:40:10;17.20;99.90
25170;DHT22;13129;48.012;10.352;2022-08-19T07:42:42;17.20;99.90
25170;DHT22;13129;48.012;10.352;2022-08-19T07:45:26;17.10;99.90
25170;DHT22;13129;48.012;10.352;2022-08-19T07:48:12;17.00;99.90
25170;DHT22;13129;48.012;10.352;2022-08-19T07:50:48;17.00;99.90
25170;DHT22;13129;48.012;10.352;2022-08-19T07:53:14;17.00;99.90
25170;DHT22;13129;48.012;10.352;2022-08-19T07:55:40;17.00;99.90
25170;DHT22;13129;48.012;10.352;2022-08-19T07:58:06;16.90;99.90
25170;DHT22;13129;48.012;10.352;2022-08-19T08:00:32;16.90;99.90
25170;DHT22;13129;48.012;10.352;2022-08-19T08:02:57;16.90;99.90
25170;DHT22;13129;48.012;10.352;2022-08-19T08:05:23;16.90;99.90
25170;DHT22;13129;48.012;10.352;2022-08-19T08:08:14;17.00;99.90
25170;DHT22;13129;48.012;10.352;2022-08-19T08:11:05;17.00;99.90
25170;DHT22;13129;48.012;10.352;2022-08-19T08:13:40;17.00;99.90
25170;DHT22;13129;48.012;10.352;2022-08-19T08:16:17;17.10;99.90
25170;DHT22;13129;48.012;10.352;2022-08-19T08:18:43;17.10;99.90
25170;DHT22;13129;48.012;10.352;2022-08-19T08:21:09;17.00;99.90
25170;DHT22;13129;48.012;10.352;2022-08-19T08:23:47;17.00;99.90
25170;DHT22;13129;48.012;10.352;2022-08-19T08:26:13;17.00;99.90
25170;DHT22;13129;48.012;10.352;2022-08-19T08:28:40;16.90;99.90
25170;DHT22;13129;48.012;10.352;2022-08-19T08:31:06;16.90;99.90
25170;DHT22;13129;48.012;10.352;2022-08-19T08:33:32;17.00;99.90
25170;DHT22;13129;48.012;10.352;2022-08-19T08:35:57;17.10;99.90
25170;DHT22;13129;48.012;10.352;2022-08-19T08:38:23;17.10;99.90
25170;DHT22;13129;48.012;10.352;2022-08-19T08:41:03;17.20;99.90
25170;DHT22;13129;48.012;10.352;2022-08-19T08:43:38;17.20;99.90
25170;DHT22;13129;48.012;10.352;2022-08-19T08:46:20;17.20;99.90
25170;DHT22;13129;48.012;10.352;2022-08-19T08:48:57;17.20;99.90
25170;DHT22;13129;48.012;10.352;2022-08-19T08:51:34;17.20;99.90
25170;DHT22;13129;48.012;10.352;2022-08-19T08:54:05;17.30;99.90
25170;DHT22;13129;48.012;10.352;2022-08-19T08:56:32;17.30;99.90
25170;DHT22;13129;48.012;10.352;2022-08-19T08:59:21;17.20;99.90
25170;DHT22;13129;48.012;10.352;2022-08-19T09:01:47;17.30;99.90
25170;DHT22;13129;48.012;10.352;2022-08-19T09:04:13;17.20;99.90
25170;DHT22;13129;48.012;10.352;2022-08-19T09:09:26;17.20;99.90
25170;DHT22;13129;48.012;10.352;2022-08-19T09:17:26;17.20;99.90
25170;DHT22;13129;48.012;10.352;2022-08-19T09:22:41;17.20;99.90
25170;DHT22;13129;48.012;10.352;2022-08-19T09:25:13;17.20;99.90
25170;DHT22;13129;48.012;10.352;2022-08-19T09:27:40;17.20;99.90
25170;DHT22;13129;48.012;10.352;2022-08-19T09:30:09;17.20;99.90
25170;DHT22;13129;48.012;10.352;2022-08-19T09:32:38;17.20;99.90
25170;DHT22;13129;48.012;10.352;2022-08-19T09:35:08;17.20;99.90
25170;DHT22;13129;48.012;10.352;2022-08-19T09:37:34;17.20;99.90
25170;DHT22;13129;48.012;10.352;2022-08-19T09:40:00;17.20;99.90
25170;DHT22;13129;48.012;10.352;2022-08-19T09:42:26;17.10;99.90
25170;DHT22;13129;48.012;10.352;2022-08-19T09:44:52;17.10;99.90
25170;DHT22;13129;48.012;10.352;2022-08-19T09:47:18;17.10;99.90
25170;DHT22;13129;48.012;10.352;2022-08-19T09:49:43;17.10;99.90
25170;DHT22;13129;48.012;10.352;2022-08-19T09:52:10;17.10;99.90
25170;DHT22;13129;48.012;10.352;2022-08-19T09:54:37;17.10;99.90
25170;DHT22;13129;48.012;10.352;2022-08-19T09:57:03;17.00;99.90
25170;DHT22;13129;48.012;10.352;2022-08-19T09:59:29;17.00;99.90
25170;DHT22;13129;48.012;10.352;2022-08-19T10:01:55;17.00;99.90
25170;DHT22;13129;48.012;10.352;2022-08-19T10:04:21;17.00;99.90
25170;DHT22;13129;48.012;10.352;2022-08-19T10:06:48;17.00;99.90
25170;DHT22;13129;48.012;10.352;2022-08-19T10:09:16;17.00;99.90
25170;DHT22;13129;48.012;10.352;2022-08-19T10:11:44;17.00;99.90
25170;DHT22;13129;48.012;10.352;2022-08-19T10:14:14;17.10;99.90
25170;DHT22;13129;48.012;10.352;2022-08-19T10:16:40;17.20;99.90
25170;DHT22;13129;48.012;10.352;2022-08-19T10:19:07;17.30;99.90
25170;DHT22;13129;48.012;10.352;2022-08-19T10:21:33;17.30;99.90
25170;DHT22;13129;48.012;10.352;2022-08-19T10:24:02;17.20;99.90
25170;DHT22;13129;48.012;10.352;2022-08-19T10:26:35;17.20;99.90
25170;DHT22;13129;48.012;10.352;2022-08-19T10:29:03;17.20;99.90
25170;DHT22;13129;48.012;10.352;2022-08-19T10:31:31;17.10;99.90
25170;DHT22;13129;48.012;10.352;2022-08-19T10:34:00;17.00;99.90
25170;DHT22;13129;48.012;10.352;2022-08-19T10:36:34;17.00;99.90
25170;DHT22;13129;48.012;10.352;2022-08-19T10:39:08;17.00;99.90
25170;DHT22;13129;48.012;10.352;2022-08-19T10:41:37;16.90;99.90
25170;DHT22;13129;48.012;10.352;2022-08-19T10:44:06;16.90;99.90
25170;DHT22;13129;48.012;10.352;2022-08-19T10:46:35;16.90;99.90
25170;DHT22;13129;48.012;10.352;2022-08-19T10:49:04;16.80;99.90
25170;DHT22;13129;48.012;10.352;2022-08-19T10:51:39;16.70;99.90
25170;DHT22;13129;48.012;10.352;2022-08-19T10:57:47;16.70;99.90
25170;DHT22;13129;48.012;10.352;2022-08-19T11:00:43;16.70;99.90
25170;DHT22;13129;48.012;10.352;2022-08-19T11:10:13;16.40;99.90
25170;DHT22;13129;48.012;10.352;2022-08-19T11:13:05;16.50;99.90
25170;DHT22;13129;48.012;10.352;2022-08-19T11:15:40;16.50;99.90
25170;DHT22;13129;48.012;10.352;2022-08-19T11:26:28;16.60;99.90
25170;DHT22;13129;48.012;10.352;2022-08-19T11:39:41;16.60;99.90
25170;DHT22;13129;48.012;10.352;2022-08-19T11:42:28;16.60;99.90
25170;DHT22;13129;48.012;10.352;2022-08-19T11:59:35;16.50;99.90
25170;DHT22;13129;48.012;10.352;2022-08-19T12:44:07;16.40;99.90
25170;DHT22;13129;48.012;10.352;2022-08-19T13:12:12;16.60;99.90
25170;DHT22;13129;48.012;10.352;2022-08-19T13:15:09;16.60;99.90
25170;DHT22;13129;48.012;10.352;2022-08-19T13:18:01;16.70;99.90
25170;DHT22;13129;48.012;10.352;2022-08-19T13:21:10;16.60;99.90
25170;DHT22;13129;48.012;10.352;2022-08-19T13:23:49;16.70;99.90
25170;DHT22;13129;48.012;10.352;2022-08-19T13:26:21;16.70;99.90
25170;DHT22;13129;48.012;10.352;2022-08-19T13:28:50;16.70;99.90
25170;DHT22;13129;48.012;10.352;2022-08-19T13:31:36;16.70;99.90
25170;DHT22;13129;48.012;10.352;2022-08-19T13:34:32;16.70;99.90
25170;DHT22;13129;48.012;10.352;2022-08-19T13:37:11;16.70;99.90
25170;DHT22;13129;48.012;10.352;2022-08-19T13:39:37;16.70;99.90
25170;DHT22;13129;48.012;10.352;2022-08-19T13:45:33;16.70;99.90
25170;DHT22;13129;48.012;10.352;2022-08-19T13:51:29;16.60;99.90
25170;DHT22;13129;48.012;10.352;2022-08-19T13:54:00;16.70;99.90
25170;DHT22;13129;48.012;10.352;2022-08-19T13:56:29;16.70;99.90
25170;DHT22;13129;48.012;10.352;2022-08-19T13:58:54;16.80;99.90
25170;DHT22;13129;48.012;10.352;2022-08-19T14:01:23;16.70;99.90
25170;DHT22;13129;48.012;10.352;2022-08-19T14:03:49;16.80;99.90
25170;DHT22;13129;48.012;10.352;2022-08-19T14:06:19;16.80;99.90
25170;DHT22;13129;48.012;10.352;2022-08-19T14:08:45;16.80;99.90
25170;DHT22;13129;48.012;10.352;2022-08-19T14:14:00;16.90;99.90
25170;DHT22;13129;48.012;10.352;2022-08-19T14:16:26;16.80;99.90
25170;DHT22;13129;48.012;10.352;2022-08-19T14:18:55;16.80;99.90
25170;DHT22;13129;48.012;10.352;2022-08-19T14:21:22;16.90;99.90
25170;DHT22;13129;48.012;10.352;2022-08-19T14:23:49;16.90;99.90
25170;DHT22;13129;48.012;10.352;2022-08-19T14:26:27;17.00;99.90
25170;DHT22;13129;48.012;10.352;2022-08-19T14:28:56;17.00;99.90
25170;DHT22;13129;48.012;10.352;2022-08-19T14:31:23;17.10;99.90
25170;DHT22;13129;48.012;10.352;2022-08-19T14:33:49;17.10;99.90
25170;DHT22;13129;48.012;10.352;2022-08-19T14:36:17;17.10;99.90
25170;DHT22;13129;48.012;10.352;2022-08-19T14:38:43;17.10;99.90
25170;DHT22;13129;48.012;10.352;2022-08-19T14:41:13;17.20;99.90
25170;DHT22;13129;48.012;10.352;2022-08-19T14:43:41;17.20;99.90
25170;DHT22;13129;48.012;10.352;2022-08-19T14:46:07;17.20;99.90
25170;DHT22;13129;48.012;10.352;2022-08-19T14:48:33;17.20;99.90
25170;DHT22;13129;48.012;10.352;2022-08-19T14:51:05;17.30;99.90
25170;DHT22;13129;48.012;10.352;2022-08-19T14:53:31;17.30;99.90
25170;DHT22;13129;48.012;10.352;2022-08-19T14:55:59;17.30;99.90
25170;DHT22;13129;48.012;10.352;2022-08-19T14:58:25;17.20;99.90
25170;DHT22;13129;48.012;10.352;2022-08-19T15:00:51;17.10;99.90
25170;DHT22;13129;48.012;10.352;2022-08-19T15:03:17;17.10;99.90
25170;DHT22;13129;48.012;10.352;2022-08-19T15:05:43;17.00;99.90
25170;DHT22;13129;48.012;10.352;2022-08-19T15:08:09;17.00;99.90
25170;DHT22;13129;48.012;10.352;2022-08-19T15:10:37;16.90;99.90
25170;DHT22;13129;48.012;10.352;2022-08-19T15:13:03;16.90;99.90
25170;DHT22;13129;48.012;10.352;2022-08-19T15:15:29;16.90;99.90
25170;DHT22;13129;48.012;10.352;2022-08-19T15:17:55;16.90;99.90
25170;DHT22;13129;48.012;10.352;2022-08-19T15:20:28;16.90;99.90
25170;DHT22;13129;48.012;10.352;2022-08-19T15:22:54;16.90;99.90
25170;DHT22;13129;48.012;10.352;2022-08-19T15:25:19;17.00;99.90
25170;DHT22;13129;48.012;10.352;2022-08-19T15:27:49;17.10;99.90
25170;DHT22;13129;48.012;10.352;2022-08-19T15:30:26;17.10;99.90
25170;DHT22;13129;48.012;10.352;2022-08-19T15:32:55;17.10;99.90
25170;DHT22;13129;48.012;10.352;2022-08-19T15:35:22;17.10;99.90
25170;DHT22;13129;48.012;10.352;2022-08-19T15:37:49;17.10;99.90
25170;DHT22;13129;48.012;10.352;2022-08-19T15:40:16;17.00;99.90
25170;DHT22;13129;48.012;10.352;2022-08-19T15:42:42;17.00;99.90
25170;DHT22;13129;48.012;10.352;2022-08-19T15:45:13;17.00;99.90
25170;DHT22;13129;48.012;10.352;2022-08-19T15:47:39;17.00;99.90
25170;DHT22;13129;48.012;10.352;2022-08-19T15:50:07;16.90;99.90
25170;DHT22;13129;48.012;10.352;2022-08-19T15:52:43;16.90;99.90
25170;DHT22;13129;48.012;10.352;2022-08-19T15:55:09;16.90;99.90
25170;DHT22;13129;48.012;10.352;2022-08-19T15:57:50;16.80;99.90
25170;DHT22;13129;48.012;10.352;2022-08-19T16:00:35;16.90;99.90
25170;DHT22;13129;48.012;10.352;2022-08-19T16:03:35;16.80;99.90
25170;DHT22;13129;48.012;10.352;2022-08-19T16:06:59;16.80;99.90
25170;DHT22;13129;48.012;10.352;2022-08-19T16:09:52;16.70;99.90
25170;DHT22;13129;48.012;10.352;2022-08-19T16:12:47;16.70;99.90
25170;DHT22;13129;48.012;10.352;2022-08-19T16:15:54;16.70;99.90
25170;DHT22;13129;48.012;10.352;2022-08-19T16:22:49;16.50;99.90
25170;DHT22;13129;48.012;10.352;2022-08-19T16:26:05;16.50;99.90
25170;DHT22;13129;48.012;10.352;2022-08-19T16:32:49;16.50;99.90
25170;DHT22;13129;48.012;10.352;2022-08-19T16:36:07;16.50;99.90
25170;DHT22;13129;48.012;10.352;2022-08-19T16:50:12;16.60;99.90
25170;DHT22;13129;48.012;10.352;2022-08-19T16:53:27;16.60;99.90
25170;DHT22;13129;48.012;10.352;2022-08-19T17:02:51;16.50;99.90
25170;DHT22;13129;48.012;10.352;2022-08-19T17:05:36;16.50;99.90
25170;DHT22;13129;48.012;10.352;2022-08-19T17:29:32;16.40;99.90
25170;DHT22;13129;48.012;10.352;2022-08-19T17:36:39;16.30;99.90
25170;DHT22;13129;48.012;10.352;2022-08-19T18:11:19;16.20;99.90
25170;DHT22;13129;48.012;10.352;2022-08-19T18:14:37;16.20;99.90
25170;DHT22;13129;48.012;10.352;2022-08-19T18:21:35;16.20;99.90
25170;DHT22;13129;48.012;10.352;2022-08-19T18:55:09;16.20;99.90
25170;DHT22;13129;48.012;10.352;2022-08-19T19:27:22;16.40;99.90
25170;DHT22;13129;48.012;10.352;2022-08-19T19:57:19;16.50;99.90
25170;DHT22;13129;48.012;10.352;2022-08-19T20:00:07;16.50;99.90
25170;DHT22;13129;48.012;10.352;2022-08-19T20:03:01;16.50;99.90
25170;DHT22;13129;48.012;10.352;2022-08-19T20:19:14;16.40;99.90
25170;DHT22;13129;48.012;10.352;2022-08-19T20:22:27;16.50;99.90
25170;DHT22;13129;48.012;10.352;2022-08-19T20:25:21;16.40;99.90
25170;DHT22;13129;48.012;10.352;2022-08-19T20:32:10;16.50;99.90
25170;DHT22;13129;48.012;10.352;2022-08-19T20:34:52;16.40;99.90
25170;DHT22;13129;48.012;10.352;2022-08-19T20:40:12;16.40;99.90
25170;DHT22;13129;48.012;10.352;2022-08-19T20:46:22;16.40;99.90
25170;DHT22;13129;48.012;10.352;2022-08-19T20:48:39;16.30;99.90
25170;DHT22;13129;48.012;10.352;2022-08-19T20:51:10;16.30;99.90
25170;DHT22;13129;48.012;10.352;2022-08-19T20:53:44;16.40;99.90
25170;DHT22;13129;48.012;10.352;2022-08-19T20:59:16;16.40;99.90
25170;DHT22;13129;48.012;10.352;2022-08-19T21:02:02;16.30;99.90
25170;DHT22;13129;48.012;10.352;2022-08-19T21:04:37;16.30;99.90
25170;DHT22;13129;48.012;10.352;2022-08-19T21:07:16;16.30;99.90
25170;DHT22;13129;48.012;10.352;2022-08-19T21:09:48;16.30;99.90
25170;DHT22;13129;48.012;10.352;2022-08-19T21:12:37;16.30;99.90
25170;DHT22;13129;48.012;10.352;2022-08-19T21:15:04;16.30;99.90
25170;DHT22;13129;48.012;10.352;2022-08-19T21:17:31;16.20;99.90
25170;DHT22;13129;48.012;10.352;2022-08-19T21:20:03;16.30;99.90
25170;DHT22;13129;48.012;10.352;2022-08-19T21:22:52;16.20;99.90
25170;DHT22;13129;48.012;10.352;2022-08-19T21:25:18;16.30;99.90
25170;DHT22;13129;48.012;10.352;2022-08-19T21:28:04;16.30;99.90
25170;DHT22;13129;48.012;10.352;2022-08-19T21:30:36;16.30;99.90
25170;DHT22;13129;48.012;10.352;2022-08-19T21:33:03;16.30;99.90
25170;DHT22;13129;48.012;10.352;2022-08-19T21:35:32;16.30;99.90
25170;DHT22;13129;48.012;10.352;2022-08-19T21:38:10;16.30;99.90
25170;DHT22;13129;48.012;10.352;2022-08-19T21:40:50;16.20;99.90
25170;DHT22;13129;48.012;10.352;2022-08-19T21:44:02;16.20;99.90
25170;DHT22;13129;48.012;10.352;2022-08-19T21:46:55;16.20;99.90
25170;DHT22;13129;48.012;10.352;2022-08-19T21:53:38;16.20;99.90
25170;DHT22;13129;48.012;10.352;2022-08-19T22:07:36;16.10;99.90
25170;DHT22;13129;48.012;10.352;2022-08-19T22:10:37;16.10;99.90
25170;DHT22;13129;48.012;10.352;2022-08-19T22:16:28;16.20;99.90
25170;DHT22;13129;48.012;10.352;2022-08-19T22:19:28;16.20;99.90
25170;DHT22;13129;48.012;10.352;2022-08-19T22:32:40;16.20;99.90
25170;DHT22;13129;48.012;10.352;2022-08-19T22:36:08;16.20;99.90
25170;DHT22;13129;48.012;10.352;2022-08-19T22:38:42;16.30;99.90
25170;DHT22;13129;48.012;10.352;2022-08-19T22:52:25;16.20;99.90
25170;DHT22;13129;48.012;10.352;2022-08-19T22:55:49;16.20;99.90
